Time;durP1;ratioP1;P1;durP2;ratioP2;P2;SDS_P1;SDS_P2;PMS_P1;PMS_P2;Temp;Humidity;BMP_temperature;BMP_pressure;BME280_temperature;BME280_humidity;BME280_pressure;Samples;Min_cycle;Max_cycle;Signal;HPM_P1;HPM_P2
2023/05/11 00:01:08;;;;;;;;;;;;;;;5.66;74.66;97714.40;110230;1242;71824;-74
2023/05/11 00:03:37;;;;;;;;;;;;;;;5.63;75.54;97721.42;110179;1242;69829;-74
2023/05/11 00:06:06;;;;;;;;;;;;;;;5.61;78.52;97717.39;110162;1242;69724;-74
2023/05/11 00:08:36;;;;;;;;;;;;;;;5.59;80.37;97717.81;110243;1241;59747;-76
2023/05/11 00:11:08;;;;;;;;;;;;;;;5.57;85.26;97717.92;110235;1242;59690;-75
2023/05/11 00:13:40;;;;;;;;;;;;;;;5.50;87.63;97718.73;110215;1242;70614;-74
2023/05/11 00:16:10;;;;;;;;;;;;;;;5.45;87.67;97723.52;110260;1242;69504;-74
2023/05/11 00:18:43;;;;;;;;;;;;;;;5.39;87.29;97719.64;110220;1242;69310;-74
2023/05/11 00:21:13;;;;;;;;;;;;;;;5.34;88.78;97719.67;110200;1240;59738;-74
2023/05/11 00:23:45;;;;;;;;;;;;;;;5.30;88.25;97718.84;110215;1248;60143;-75
2023/05/11 00:26:15;;;;;;;;;;;;;;;5.26;85.96;97718.31;110243;1242;71423;-75
2023/05/11 00:28:46;;;;;;;;;;;;;;;5.24;86.24;97717.70;110229;1242;70093;-75
2023/05/11 00:31:16;;;;;;;;;;;;;;;5.22;86.22;97712.83;110206;1242;69643;-74
2023/05/11 00:33:48;;;;;;;;;;;;;;;5.19;84.93;97717.27;110178;1244;59725;-74
2023/05/11 00:36:18;;;;;;;;;;;;;;;5.16;84.58;97715.88;110112;1245;59679;-75
2023/05/11 00:38:49;;;;;;;;;;;;;;;5.13;84.97;97716.35;110215;1242;71748;-75
2023/05/11 00:41:20;;;;;;;;;;;;;;;5.09;85.96;97713.41;110203;1242;69845;-75
2023/05/11 00:43:54;;;;;;;;;;;;;;;5.07;86.01;97713.16;110195;1249;68120;-75
2023/05/11 00:46:33;;;;;;;;;;;;;;;5.04;86.45;97713.48;110092;1244;60057;-74
2023/05/11 00:49:08;;;;;;;;;;;;;;;4.99;86.76;97714.55;110235;1242;59659;-75
2023/05/11 00:51:39;;;;;;;;;;;;;;;4.95;86.73;97716.30;110235;1241;70424;-75
2023/05/11 00:54:14;;;;;;;;;;;;;;;4.88;87.68;97719.39;110131;1242;68385;-75
2023/05/11 00:56:47;;;;;;;;;;;;;;;4.80;91.36;97718.52;110185;1242;69287;-74
2023/05/11 00:59:18;;;;;;;;;;;;;;;4.69;90.89;97720.07;110208;1242;59737;-74
2023/05/11 01:01:53;;;;;;;;;;;;;;;4.60;89.19;97721.48;110176;1243;59641;-74
2023/05/11 01:04:27;;;;;;;;;;;;;;;4.50;90.68;97722.45;110109;1244;70636;-74
2023/05/11 01:07:05;;;;;;;;;;;;;;;4.41;89.62;97721.98;110120;1241;67969;-75
2023/05/11 01:09:44;;;;;;;;;;;;;;;4.34;90.34;97720.21;110121;1245;69376;-75
2023/05/11 01:12:19;;;;;;;;;;;;;;;4.29;97.13;97724.57;110118;1244;59761;-75
2023/05/11 01:14:57;;;;;;;;;;;;;;;4.25;98.93;97722.49;110178;1245;59833;-74
2023/05/11 01:17:36;;;;;;;;;;;;;;;4.22;99.38;97720.04;110142;1244;71413;-75
2023/05/11 01:20:11;;;;;;;;;;;;;;;4.18;100.00;97722.79;110164;1244;68479;-75
2023/05/11 01:23:02;;;;;;;;;;;;;;;4.13;100.00;97721.98;110115;1245;68526;-74
2023/05/11 01:25:55;;;;;;;;;;;;;;;4.03;99.20;97723.56;110097;1244;59700;-74
2023/05/11 01:28:27;;;;;;;;;;;;;;;3.96;99.39;97725.08;110161;1241;59630;-75
2023/05/11 01:31:08;;;;;;;;;;;;;;;3.89;100.00;97723.61;110118;1244;71326;-74
2023/05/11 01:34:02;;;;;;;;;;;;;;;3.84;99.30;97721.60;110130;1241;68652;-74
2023/05/11 01:36:35;;;;;;;;;;;;;;;3.80;100.00;97722.11;110105;1245;68444;-75
2023/05/11 01:39:07;;;;;;;;;;;;;;;3.76;100.00;97722.44;110112;1245;59699;-74
2023/05/11 01:41:41;;;;;;;;;;;;;;;3.73;100.00;97721.02;110135;1243;59705;-74
2023/05/11 01:44:18;;;;;;;;;;;;;;;3.69;100.00;97722.40;110188;1241;71464;-74
2023/05/11 01:46:54;;;;;;;;;;;;;;;3.64;100.00;97725.34;110183;1245;69259;-74
2023/05/11 01:49:31;;;;;;;;;;;;;;;3.60;100.00;97726.20;110162;1243;69302;-75
2023/05/11 01:52:04;;;;;;;;;;;;;;;3.54;100.00;97724.66;110162;1241;59670;-74
2023/05/11 01:54:36;;;;;;;;;;;;;;;3.51;99.85;97725.33;110186;1245;59634;-74
2023/05/11 01:57:11;;;;;;;;;;;;;;;3.50;100.00;97723.67;110157;1241;71224;-74
2023/05/11 01:59:45;;;;;;;;;;;;;;;3.49;100.00;97720.42;110127;1243;69174;-75
2023/05/11 02:02:18;;;;;;;;;;;;;;;3.47;100.00;97722.39;110071;1241;68389;-74
2023/05/11 02:04:47;;;;;;;;;;;;;;;3.46;100.00;97719.48;110201;1241;59689;-74
2023/05/11 02:07:18;;;;;;;;;;;;;;;3.45;100.00;97723.52;109648;1242;738447;-74
2023/05/11 02:09:49;;;;;;;;;;;;;;;3.43;100.00;97721.02;110148;1244;71483;-74
2023/05/11 02:12:21;;;;;;;;;;;;;;;3.41;100.00;97722.80;110169;1240;69260;-74
2023/05/11 02:14:52;;;;;;;;;;;;;;;3.40;100.00;97717.66;110217;1242;68415;-75
2023/05/11 02:17:23;;;;;;;;;;;;;;;3.38;99.90;97718.45;110142;1244;59763;-74
2023/05/11 02:19:54;;;;;;;;;;;;;;;3.37;98.83;97716.06;110109;1243;59743;-74
2023/05/11 02:22:26;;;;;;;;;;;;;;;3.40;100.00;97716.83;110173;1242;71193;-75
2023/05/11 02:24:59;;;;;;;;;;;;;;;3.41;100.00;97717.10;110196;1240;68492;-76
2023/05/11 02:27:29;;;;;;;;;;;;;;;3.42;99.44;97714.67;110212;1240;68317;-76
2023/05/11 02:29:59;;;;;;;;;;;;;;;3.46;99.40;97713.11;110179;1242;59668;-74
2023/05/11 02:32:34;;;;;;;;;;;;;;;3.51;97.25;97714.66;110163;1243;60142;-74
2023/05/11 02:35:16;;;;;;;;;;;;;;;3.55;93.98;97711.02;110224;1241;71501;-75
2023/05/11 02:37:46;;;;;;;;;;;;;;;3.58;93.67;97712.46;110156;1245;69320;-75
2023/05/11 02:40:19;;;;;;;;;;;;;;;3.64;94.16;97712.27;110163;1241;69883;-75
2023/05/11 02:42:53;;;;;;;;;;;;;;;3.69;92.81;97712.56;110211;1242;59739;-75
2023/05/11 02:45:26;;;;;;;;;;;;;;;3.73;96.65;97709.95;110216;1242;59762;-75
2023/05/11 02:47:57;;;;;;;;;;;;;;;3.75;92.93;97710.95;110194;1242;71296;-75
2023/05/11 02:50:29;;;;;;;;;;;;;;;3.77;92.33;97708.95;110129;1245;68322;-75
2023/05/11 02:53:02;;;;;;;;;;;;;;;3.78;92.31;97712.34;110186;1245;69467;-75
2023/05/11 02:55:32;;;;;;;;;;;;;;;3.80;92.39;97714.36;110127;1245;59712;-75
2023/05/11 02:58:02;;;;;;;;;;;;;;;3.81;92.95;97717.56;110163;1242;59678;-76
2023/05/11 03:00:33;;;;;;;;;;;;;;;3.82;93.71;97713.55;110129;1245;71308;-75
2023/05/11 03:03:02;;;;;;;;;;;;;;;3.84;94.18;97716.44;110167;1242;69807;-75
2023/05/11 03:05:33;;;;;;;;;;;;;;;3.86;97.77;97719.29;110109;1241;69327;-75
2023/05/11 03:08:04;;;;;;;;;;;;;;;3.84;97.68;97719.70;110156;1244;59689;-75
2023/05/11 03:10:35;;;;;;;;;;;;;;;3.83;94.90;97720.42;110145;1245;59764;-75
2023/05/11 03:13:06;;;;;;;;;;;;;;;3.83;93.10;97721.95;110170;1245;70691;-75
2023/05/11 03:15:36;;;;;;;;;;;;;;;3.85;93.05;97722.07;110079;1241;69300;-75
2023/05/11 03:18:07;;;;;;;;;;;;;;;3.86;95.01;97727.40;110155;1245;69083;-75
2023/05/11 03:20:39;;;;;;;;;;;;;;;3.85;99.02;97727.77;110139;1241;59703;-75
2023/05/11 03:23:10;;;;;;;;;;;;;;;3.84;98.12;97729.89;110161;1245;59751;-75
2023/05/11 03:25:42;;;;;;;;;;;;;;;3.84;99.98;97726.41;110157;1244;71260;-75
2023/05/11 03:28:12;;;;;;;;;;;;;;;3.82;99.92;97728.02;110119;1243;69261;-75
2023/05/11 03:30:47;;;;;;;;;;;;;;;3.80;100.00;97728.31;110108;1244;69135;-73
2023/05/11 03:33:16;;;;;;;;;;;;;;;3.78;100.00;97728.19;110111;1245;59723;-75
2023/05/11 03:35:46;;;;;;;;;;;;;;;3.79;99.96;97728.52;110171;1245;59675;-75
2023/05/11 03:38:21;;;;;;;;;;;;;;;3.81;99.99;97730.70;110191;1243;70636;-75
2023/05/11 03:40:51;;;;;;;;;;;;;;;3.83;99.96;97730.27;110113;1245;69259;-75
2023/05/11 03:43:21;;;;;;;;;;;;;;;3.86;99.07;97729.79;110116;1243;69316;-75
2023/05/11 03:45:53;;;;;;;;;;;;;;;3.94;98.93;97733.09;110086;1247;59752;-74
2023/05/11 03:48:23;;;;;;;;;;;;;;;3.99;99.23;97733.06;110174;1241;59739;-75
2023/05/11 03:50:53;;;;;;;;;;;;;;;4.03;96.38;97732.52;110129;1245;71273;-75
2023/05/11 03:53:24;;;;;;;;;;;;;;;4.10;97.24;97737.41;110102;1245;69224;-74
2023/05/11 03:55:53;;;;;;;;;;;;;;;4.17;98.35;97733.02;110118;1245;69846;-75
2023/05/11 03:58:23;;;;;;;;;;;;;;;4.23;98.02;97730.85;110143;1245;59757;-75
2023/05/11 04:00:51;;;;;;;;;;;;;;;4.31;98.89;97736.21;110199;1241;59744;-75
2023/05/11 04:03:20;;;;;;;;;;;;;;;4.40;97.30;97738.59;110135;1241;71967;-74
2023/05/11 04:05:50;;;;;;;;;;;;;;;4.52;99.63;97740.98;110155;1245;69238;-75
2023/05/11 04:08:19;;;;;;;;;;;;;;;4.66;95.06;97742.83;110147;1244;69171;-75
2023/05/11 04:10:49;;;;;;;;;;;;;;;4.86;95.79;97741.42;110128;1245;59771;-74
2023/05/11 04:13:18;;;;;;;;;;;;;;;5.13;96.11;97749.19;110168;1243;59741;-74
2023/05/11 04:15:46;;;;;;;;;;;;;;;5.44;96.24;97748.77;110173;1245;71972;-75
2023/05/11 04:18:16;;;;;;;;;;;;;;;5.78;95.88;97750.98;110147;1245;70075;-74
2023/05/11 04:20:46;;;;;;;;;;;;;;;6.11;95.41;97750.63;110169;1244;69618;-75
2023/05/11 04:23:15;;;;;;;;;;;;;;;6.38;94.66;97749.58;110147;1243;59790;-73
2023/05/11 04:25:44;;;;;;;;;;;;;;;6.56;93.30;97749.38;110133;1241;59705;-74
2023/05/11 04:28:13;;;;;;;;;;;;;;;6.69;92.74;97750.42;110170;1245;70473;-73
2023/05/11 04:30:42;;;;;;;;;;;;;;;6.82;92.41;97749.95;110128;1245;69223;-74
2023/05/11 04:33:13;;;;;;;;;;;;;;;6.91;91.72;97753.94;110141;1245;69411;-75
2023/05/11 04:35:42;;;;;;;;;;;;;;;7.03;91.28;97752.46;110118;1243;59750;-74
2023/05/11 04:38:12;;;;;;;;;;;;;;;7.11;90.40;97750.45;110150;1245;59711;-74
2023/05/11 04:40:40;;;;;;;;;;;;;;;7.22;90.78;97753.20;110116;1241;70646;-74
2023/05/11 04:43:10;;;;;;;;;;;;;;;7.34;90.73;97755.30;110114;1245;69543;-74
2023/05/11 04:45:38;;;;;;;;;;;;;;;7.48;90.65;97755.27;110119;1241;69405;-74
2023/05/11 04:48:08;;;;;;;;;;;;;;;7.62;89.94;97761.40;110129;1241;59676;-73
2023/05/11 04:50:37;;;;;;;;;;;;;;;7.79;89.45;97761.84;110163;1247;59713;-74
2023/05/11 04:53:09;;;;;;;;;;;;;;;8.02;88.61;97761.41;110135;1242;71403;-73
2023/05/11 04:55:38;;;;;;;;;;;;;;;8.29;86.74;97758.81;110144;1244;69745;-74
2023/05/11 04:58:09;;;;;;;;;;;;;;;8.60;83.91;97757.92;110142;1241;69692;-74
2023/05/11 05:00:38;;;;;;;;;;;;;;;8.92;83.81;97760.84;110092;1244;59756;-73
2023/05/11 05:03:06;;;;;;;;;;;;;;;9.26;84.57;97759.77;110148;1241;59747;-74
2023/05/11 05:05:36;;;;;;;;;;;;;;;9.52;83.77;97762.87;110197;1242;71660;-74
2023/05/11 05:08:06;;;;;;;;;;;;;;;9.70;80.77;97761.73;110219;1242;69821;-74
2023/05/11 05:10:35;;;;;;;;;;;;;;;9.76;78.06;97765.73;110171;1241;68719;-73
2023/05/11 05:13:03;;;;;;;;;;;;;;;9.85;78.51;97765.15;110178;1248;59750;-74
2023/05/11 05:15:32;;;;;;;;;;;;;;;10.04;76.60;97762.65;110146;1243;59758;-73
2023/05/11 05:18:01;;;;;;;;;;;;;;;10.45;76.52;97763.31;110231;1242;71368;-74
2023/05/11 05:20:31;;;;;;;;;;;;;;;10.90;74.59;97759.41;110153;1241;69394;-74
2023/05/11 05:23:01;;;;;;;;;;;;;;;11.31;72.09;97760.20;110207;1241;68303;-74
2023/05/11 05:25:30;;;;;;;;;;;;;;;11.79;71.00;97762.60;110184;1241;59694;-73
2023/05/11 05:28:00;;;;;;;;;;;;;;;12.25;67.92;97762.24;110171;1241;60201;-74
2023/05/11 05:30:29;;;;;;;;;;;;;;;12.46;64.07;97756.10;110206;1242;71222;-74
2023/05/11 05:32:59;;;;;;;;;;;;;;;12.66;62.31;97756.71;110186;1245;68171;-74
2023/05/11 05:35:28;;;;;;;;;;;;;;;12.92;61.47;97756.64;110151;1248;69834;-74
2023/05/11 05:37:58;;;;;;;;;;;;;;;13.09;60.62;97755.17;110122;1240;59738;-74
2023/05/11 05:40:27;;;;;;;;;;;;;;;13.20;60.71;97751.49;110136;1245;59695;-74
2023/05/11 05:42:57;;;;;;;;;;;;;;;13.34;60.40;97753.22;110138;1241;71698;-74
2023/05/11 05:45:26;;;;;;;;;;;;;;;13.55;59.31;97751.25;110180;1242;69194;-74
2023/05/11 05:47:55;;;;;;;;;;;;;;;13.71;58.21;97751.19;110117;1240;69885;-74
2023/05/11 05:50:25;;;;;;;;;;;;;;;13.85;56.71;97751.65;110180;1245;59643;-75
2023/05/11 05:52:54;;;;;;;;;;;;;;;13.91;56.41;97751.66;110183;1243;59737;-74
2023/05/11 05:55:25;;;;;;;;;;;;;;;14.15;55.94;97750.21;110142;1241;71953;-72
2023/05/11 05:57:56;;;;;;;;;;;;;;;14.47;55.97;97747.74;110182;1242;69689;-73
2023/05/11 06:00:25;;;;;;;;;;;;;;;14.73;54.54;97749.81;110186;1242;69936;-74
2023/05/11 06:02:59;;;;;;;;;;;;;;;14.96;53.91;97740.16;110168;1244;59738;-73
2023/05/11 06:05:28;;;;;;;;;;;;;;;15.12;52.73;97742.29;110120;1245;59662;-73
2023/05/11 06:07:58;;;;;;;;;;;;;;;15.24;52.18;97744.20;110186;1240;71548;-72
2023/05/11 06:10:38;;;;;;;;;;;;;;;15.49;51.45;97741.13;110197;1241;67737;-72
2023/05/11 06:13:08;;;;;;;;;;;;;;;15.65;50.99;97741.87;110239;1243;69776;-72
2023/05/11 06:15:39;;;;;;;;;;;;;;;15.73;49.98;97745.08;110183;1242;59709;-72
2023/05/11 06:18:32;;;;;;;;;;;;;;;15.74;49.98;97745.64;110174;1242;59678;-72
2023/05/11 06:21:03;;;;;;;;;;;;;;;15.90;48.51;97748.64;110222;1241;71396;-73
2023/05/11 06:23:32;;;;;;;;;;;;;;;15.98;49.12;97746.20;110210;1242;69822;-71
2023/05/11 06:26:01;;;;;;;;;;;;;;;16.16;47.37;97747.55;110110;1240;69887;-74
2023/05/11 06:28:32;;;;;;;;;;;;;;;16.20;47.58;97744.05;110173;1245;59692;-71
2023/05/11 06:31:04;;;;;;;;;;;;;;;16.32;47.37;97745.34;110233;1241;59771;-73
2023/05/11 06:33:35;;;;;;;;;;;;;;;16.48;46.05;97739.73;110183;1246;72119;-73
2023/05/11 06:36:07;;;;;;;;;;;;;;;16.58;46.15;97731.89;110175;1243;69079;-73
2023/05/11 06:38:36;;;;;;;;;;;;;;;16.95;47.03;97731.86;110108;1246;69866;-73
2023/05/11 06:41:06;;;;;;;;;;;;;;;17.14;44.22;97733.08;110176;1243;59669;-72
2023/05/11 06:43:35;;;;;;;;;;;;;;;16.85;43.68;97728.22;110224;1242;60116;-73
2023/05/11 06:46:04;;;;;;;;;;;;;;;16.74;44.71;97725.87;110142;1243;71229;-73
2023/05/11 06:48:33;;;;;;;;;;;;;;;16.93;44.72;97721.02;110165;1240;69971;-73
2023/05/11 06:51:02;;;;;;;;;;;;;;;17.09;45.08;97724.20;110106;1240;69694;-74
2023/05/11 06:53:31;;;;;;;;;;;;;;;17.06;43.51;97720.23;110162;1241;59755;-72
2023/05/11 06:56:01;;;;;;;;;;;;;;;17.13;43.52;97725.40;110159;1241;59696;-72
2023/05/11 06:58:30;;;;;;;;;;;;;;;17.21;43.21;97719.17;110255;1241;71925;-72
2023/05/11 07:00:59;;;;;;;;;;;;;;;17.37;42.94;97716.59;110150;1242;69873;-73
2023/05/11 07:03:28;;;;;;;;;;;;;;;17.47;42.23;97708.45;110223;1242;68605;-74
2023/05/11 07:05:57;;;;;;;;;;;;;;;17.55;42.13;97708.70;110135;1242;59740;-73
2023/05/11 07:08:27;;;;;;;;;;;;;;;17.63;41.96;97708.50;110202;1242;59672;-73
2023/05/11 07:10:57;;;;;;;;;;;;;;;17.80;41.43;97707.52;110200;1242;71977;-73
2023/05/11 07:13:25;;;;;;;;;;;;;;;17.86;41.19;97712.25;110200;1242;68660;-72
2023/05/11 07:15:54;;;;;;;;;;;;;;;18.01;41.34;97708.72;110162;1248;69292;-72
2023/05/11 07:18:25;;;;;;;;;;;;;;;18.18;40.91;97705.60;110188;1242;59689;-74
2023/05/11 07:20:55;;;;;;;;;;;;;;;18.23;40.44;97706.98;110173;1242;59676;-72
2023/05/11 07:23:24;;;;;;;;;;;;;;;18.53;40.52;97700.85;110163;1242;71485;-73
2023/05/11 07:25:56;;;;;;;;;;;;;;;18.76;39.81;97701.48;110218;1242;68235;-72
2023/05/11 07:28:25;;;;;;;;;;;;;;;18.85;38.47;97705.43;110165;1247;69315;-73
2023/05/11 07:30:54;;;;;;;;;;;;;;;18.88;37.81;97708.13;110172;1241;60166;-73
2023/05/11 07:33:22;;;;;;;;;;;;;;;18.67;37.47;97708.45;110129;1242;60139;-72
2023/05/11 07:35:51;;;;;;;;;;;;;;;18.78;37.57;97703.27;110204;1242;71988;-74
2023/05/11 07:38:20;;;;;;;;;;;;;;;18.85;37.03;97700.96;110187;1242;69605;-72
2023/05/11 07:40:49;;;;;;;;;;;;;;;18.85;36.87;97704.48;110158;1242;69265;-72
2023/05/11 07:43:18;;;;;;;;;;;;;;;18.88;37.01;97699.77;110193;1241;59670;-72
2023/05/11 07:45:48;;;;;;;;;;;;;;;19.10;37.14;97700.14;110135;1241;59737;-72
2023/05/11 07:48:17;;;;;;;;;;;;;;;19.37;35.99;97693.84;110189;1243;71454;-72
2023/05/11 07:50:46;;;;;;;;;;;;;;;19.52;35.03;97694.58;110196;1242;68481;-73
2023/05/11 07:53:15;;;;;;;;;;;;;;;19.63;34.70;97700.15;110211;1241;68556;-74
2023/05/11 07:55:44;;;;;;;;;;;;;;;19.73;34.28;97699.58;110201;1242;59630;-73
2023/05/11 07:58:14;;;;;;;;;;;;;;;19.85;34.33;97697.30;110198;1242;59688;-72
2023/05/11 08:00:43;;;;;;;;;;;;;;;20.11;33.88;97697.13;110194;1242;70931;-73
2023/05/11 08:03:14;;;;;;;;;;;;;;;20.20;33.50;97691.80;110195;1242;68710;-73
2023/05/11 08:05:44;;;;;;;;;;;;;;;20.11;33.32;97689.50;110205;1242;69187;-72
2023/05/11 08:08:12;;;;;;;;;;;;;;;19.85;33.07;97692.48;110175;1240;59728;-72
2023/05/11 08:10:41;;;;;;;;;;;;;;;19.80;33.55;97691.61;110231;1242;59743;-73
2023/05/11 08:13:12;;;;;;;;;;;;;;;19.52;33.79;97694.52;110155;1240;72172;-72
2023/05/11 08:15:41;;;;;;;;;;;;;;;19.76;34.32;97700.71;110213;1242;69129;-71
2023/05/11 08:18:10;;;;;;;;;;;;;;;19.85;30.97;97709.66;110182;1243;70016;-73
2023/05/11 08:20:41;;;;;;;;;;;;;;;19.80;30.76;97703.48;110231;1242;59756;-72
2023/05/11 08:23:15;;;;;;;;;;;;;;;19.59;31.39;97701.28;110150;1243;59743;-71
2023/05/11 08:25:51;;;;;;;;;;;;;;;19.63;31.18;97699.59;110232;1242;70708;-73
2023/05/11 08:28:20;;;;;;;;;;;;;;;19.71;32.14;97701.07;110186;1242;68760;-72
2023/05/11 08:30:53;;;;;;;;;;;;;;;19.87;32.52;97699.05;110216;1242;68447;-73
2023/05/11 08:33:23;;;;;;;;;;;;;;;19.73;33.15;97691.30;110191;1243;59717;-72
2023/05/11 08:35:55;;;;;;;;;;;;;;;19.37;32.96;97692.95;110135;1242;59652;-73
2023/05/11 08:38:24;;;;;;;;;;;;;;;19.36;33.00;97697.11;110218;1242;71879;-72
2023/05/11 08:40:53;;;;;;;;;;;;;;;19.22;33.43;97699.25;110237;1243;70252;-72
2023/05/11 08:43:24;;;;;;;;;;;;;;;19.37;33.45;97698.08;110193;1240;68531;-72
2023/05/11 08:45:55;;;;;;;;;;;;;;;19.00;33.45;97695.02;110201;1242;59743;-73
2023/05/11 08:48:25;;;;;;;;;;;;;;;18.43;34.49;97697.20;110182;1243;59741;-72
2023/05/11 08:50:54;;;;;;;;;;;;;;;18.04;35.79;97695.66;110242;1243;71925;-73
2023/05/11 08:53:24;;;;;;;;;;;;;;;17.63;35.84;97695.92;110189;1245;69651;-72
2023/05/11 08:55:54;;;;;;;;;;;;;;;17.43;36.16;97688.98;110240;1248;68404;-73
2023/05/11 08:58:23;;;;;;;;;;;;;;;17.33;36.56;97689.19;110225;1248;59699;-72
2023/05/11 09:00:53;;;;;;;;;;;;;;;17.28;36.96;97691.71;110256;1245;59794;-72
2023/05/11 09:03:22;;;;;;;;;;;;;;;17.62;36.18;97690.83;110172;1242;70701;-72
2023/05/11 09:05:51;;;;;;;;;;;;;;;17.87;36.00;97688.06;110194;1248;69820;-73
2023/05/11 09:08:21;;;;;;;;;;;;;;;17.78;36.60;97681.88;110234;1247;68588;-72
2023/05/11 09:10:51;;;;;;;;;;;;;;;17.74;36.13;97676.20;110252;1242;59737;-73
2023/05/11 09:13:20;;;;;;;;;;;;;;;17.64;36.14;97682.09;110251;1243;59743;-73
2023/05/11 09:15:49;;;;;;;;;;;;;;;17.85;35.81;97681.18;110251;1243;71522;-73
2023/05/11 09:18:18;;;;;;;;;;;;;;;18.55;35.08;97673.15;110241;1243;69421;-73
2023/05/11 09:20:49;;;;;;;;;;;;;;;19.12;33.10;97671.81;110383;1243;69239;-73
2023/05/11 09:23:23;;;;;;;;;;;;;;;19.51;32.16;97672.91;110491;1241;59625;-74
2023/05/11 09:25:51;;;;;;;;;;;;;;;19.67;32.24;97672.64;110495;1244;59670;-74
2023/05/11 09:28:21;;;;;;;;;;;;;;;19.76;32.24;97669.97;110465;1242;70830;-74
2023/05/11 09:30:53;;;;;;;;;;;;;;;19.81;31.85;97673.30;110450;1240;69199;-74
2023/05/11 09:33:23;;;;;;;;;;;;;;;19.96;31.75;97667.52;110290;1242;68982;-75
2023/05/11 09:35:52;;;;;;;;;;;;;;;19.46;31.82;97663.05;110281;1242;59730;-74
2023/05/11 09:38:24;;;;;;;;;;;;;;;18.92;32.60;97663.89;110244;1242;59688;-76
2023/05/11 09:40:54;;;;;;;;;;;;;;;18.42;33.17;97660.02;110254;1242;71404;-74
2023/05/11 09:43:25;;;;;;;;;;;;;;;18.24;34.12;97660.12;110218;1242;68852;-74
2023/05/11 09:45:55;;;;;;;;;;;;;;;18.09;34.38;97663.10;110184;1243;69352;-74
2023/05/11 09:48:26;;;;;;;;;;;;;;;17.90;33.53;97660.05;110194;1242;59682;-74
2023/05/11 09:50:59;;;;;;;;;;;;;;;18.01;33.17;97653.67;110224;1241;59747;-75
2023/05/11 09:53:49;;;;;;;;;;;;;;;18.55;30.15;97654.34;110124;1252;69687;-73
2023/05/11 09:56:18;;;;;;;;;;;;;;;19.38;30.12;97653.05;110229;1243;69713;-74
2023/05/11 09:58:48;;;;;;;;;;;;;;;19.85;29.27;97647.95;110095;1245;69879;-74
2023/05/11 10:01:18;;;;;;;;;;;;;;;19.77;29.76;97640.31;110175;1242;59687;-73
2023/05/11 10:03:47;;;;;;;;;;;;;;;19.57;29.94;97647.25;110215;1249;59688;-73
2023/05/11 10:06:16;;;;;;;;;;;;;;;19.39;30.03;97643.59;110197;1242;71410;-73
2023/05/11 10:08:48;;;;;;;;;;;;;;;19.38;30.46;97645.84;110216;1242;68483;-74
2023/05/11 10:11:16;;;;;;;;;;;;;;;19.09;31.05;97648.66;110174;1243;68874;-73
2023/05/11 10:13:45;;;;;;;;;;;;;;;18.89;31.87;97648.64;110218;1242;59747;-74
2023/05/11 10:16:15;;;;;;;;;;;;;;;18.81;32.76;97645.52;110181;1245;59712;-73
2023/05/11 10:18:44;;;;;;;;;;;;;;;18.66;32.87;97640.56;110256;1247;71359;-73
2023/05/11 10:21:14;;;;;;;;;;;;;;;18.35;32.78;97639.30;110215;1242;69206;-72
2023/05/11 10:23:43;;;;;;;;;;;;;;;18.09;33.90;97640.11;110248;1244;69902;-74
2023/05/11 10:26:13;;;;;;;;;;;;;;;17.88;33.88;97641.36;110167;1242;59736;-74
2023/05/11 10:28:42;;;;;;;;;;;;;;;17.84;34.33;97638.45;110172;1245;59747;-74
2023/05/11 10:31:12;;;;;;;;;;;;;;;17.80;34.31;97634.96;110224;1242;71376;-74
2023/05/11 10:33:40;;;;;;;;;;;;;;;17.79;34.37;97633.48;110215;1243;69223;-73
2023/05/11 10:36:10;;;;;;;;;;;;;;;17.92;34.42;97628.61;110165;1242;68721;-74
2023/05/11 10:38:39;;;;;;;;;;;;;;;18.08;34.60;97629.52;110198;1242;59761;-73
2023/05/11 10:41:18;;;;;;;;;;;;;;;18.13;33.67;97630.45;110182;1243;59630;-74
2023/05/11 10:44:06;;;;;;;;;;;;;;;18.24;34.22;97630.52;110184;1240;71253;-74
2023/05/11 10:46:41;;;;;;;;;;;;;;;18.49;34.23;97628.00;110212;1243;68457;-73
2023/05/11 10:49:09;;;;;;;;;;;;;;;18.53;34.31;97627.20;110184;1242;68510;-73
2023/05/11 10:51:45;;;;;;;;;;;;;;;18.44;33.87;97624.46;110189;1243;59719;-73
2023/05/11 10:54:27;;;;;;;;;;;;;;;18.36;34.33;97624.58;110234;1240;59696;-73
2023/05/11 10:56:56;;;;;;;;;;;;;;;18.25;34.38;97621.27;110165;1241;71356;-72
2023/05/11 10:59:25;;;;;;;;;;;;;;;18.37;34.26;97626.59;110174;1240;69061;-73
2023/05/11 11:01:57;;;;;;;;;;;;;;;18.27;34.06;97628.98;110145;1242;69884;-73
2023/05/11 11:04:40;;;;;;;;;;;;;;;18.34;34.30;97623.73;110180;1242;59762;-73
2023/05/11 11:07:10;;;;;;;;;;;;;;;18.36;33.62;97615.21;110187;1242;59650;-74
2023/05/11 11:09:55;;;;;;;;;;;;;;;18.36;32.62;97620.20;110215;1242;71951;-73
2023/05/11 11:12:26;;;;;;;;;;;;;;;18.52;32.95;97617.27;110244;1242;69209;-72
2023/05/11 11:14:56;;;;;;;;;;;;;;;18.92;31.95;97613.17;110167;1243;69696;-74
2023/05/11 11:17:26;;;;;;;;;;;;;;;19.09;31.73;97613.77;110179;1240;60029;-73
2023/05/11 11:19:56;;;;;;;;;;;;;;;18.92;31.91;97618.54;110204;1242;59702;-73
2023/05/11 11:22:34;;;;;;;;;;;;;;;18.72;31.44;97618.05;110176;1242;70457;-74
2023/05/11 11:25:13;;;;;;;;;;;;;;;18.49;31.46;97612.69;110208;1241;69849;-73
2023/05/11 11:27:42;;;;;;;;;;;;;;;18.59;32.33;97611.85;110201;1247;68533;-74
2023/05/11 11:30:18;;;;;;;;;;;;;;;18.95;32.37;97611.86;110227;1240;59699;-72
2023/05/11 11:32:51;;;;;;;;;;;;;;;19.45;31.44;97612.45;110218;1242;59663;-73
2023/05/11 11:35:46;;;;;;;;;;;;;;;20.03;31.00;97606.94;110166;1241;71911;-74
2023/05/11 11:38:16;;;;;;;;;;;;;;;20.62;29.03;97603.64;110196;1242;69818;-73
2023/05/11 11:40:50;;;;;;;;;;;;;;;21.04;28.34;97601.03;110220;1241;69336;-72
2023/05/11 11:43:20;;;;;;;;;;;;;;;21.46;28.17;97597.38;110192;1240;59819;-73
2023/05/11 11:45:55;;;;;;;;;;;;;;;21.66;26.73;97593.46;110178;1242;59750;-74
2023/05/11 11:48:33;;;;;;;;;;;;;;;21.50;27.00;97598.56;110194;1242;72101;-74
2023/05/11 11:51:03;;;;;;;;;;;;;;;21.00;27.90;97590.52;110207;1242;69228;-74
2023/05/11 11:53:35;;;;;;;;;;;;;;;20.64;28.77;97591.20;110172;1242;69280;-74
2023/05/11 11:56:06;;;;;;;;;;;;;;;20.37;28.82;97591.01;110206;1240;59677;-73
2023/05/11 11:58:43;;;;;;;;;;;;;;;20.36;29.08;97593.56;110152;1241;59689;-73
2023/05/11 12:01:13;;;;;;;;;;;;;;;20.51;28.85;97586.95;110139;1242;71954;-73
2023/05/11 12:03:42;;;;;;;;;;;;;;;20.70;27.70;97587.05;110149;1241;68737;-73
2023/05/11 12:06:12;;;;;;;;;;;;;;;20.72;26.22;97580.73;110189;1241;69098;-73
2023/05/11 12:08:42;;;;;;;;;;;;;;;20.67;25.81;97580.95;110199;1242;59719;-72
2023/05/11 12:11:15;;;;;;;;;;;;;;;20.75;26.29;97576.20;110170;1242;59653;-73
2023/05/11 12:13:43;;;;;;;;;;;;;;;20.63;25.92;97581.42;110191;1242;71359;-73
2023/05/11 12:16:13;;;;;;;;;;;;;;;20.24;26.14;97582.70;110178;1242;69836;-72
2023/05/11 12:18:50;;;;;;;;;;;;;;;19.78;25.91;97579.41;110188;1243;69248;-73
2023/05/11 12:21:20;;;;;;;;;;;;;;;19.74;26.69;97579.95;110208;1242;59801;-73
2023/05/11 12:23:56;;;;;;;;;;;;;;;19.83;26.73;97574.54;110187;1242;59700;-72
2023/05/11 12:26:25;;;;;;;;;;;;;;;20.03;27.33;97571.02;110143;1242;71442;-73
2023/05/11 12:29:07;;;;;;;;;;;;;;;20.13;27.93;97569.62;110147;1242;70183;-72
2023/05/11 12:31:37;;;;;;;;;;;;;;;20.13;27.99;97566.89;110167;1243;68725;-72
2023/05/11 12:34:06;;;;;;;;;;;;;;;19.85;27.35;97569.59;110167;1242;59735;-73
2023/05/11 12:36:35;;;;;;;;;;;;;;;19.39;27.06;97579.63;110196;1243;59707;-73
2023/05/11 12:39:04;;;;;;;;;;;;;;;18.96;27.99;97580.83;110216;1241;70203;-73
2023/05/11 12:41:33;;;;;;;;;;;;;;;18.69;27.67;97579.17;110176;1241;69823;-74
2023/05/11 12:44:01;;;;;;;;;;;;;;;18.60;28.47;97574.52;110200;1242;69223;-74
2023/05/11 12:46:30;;;;;;;;;;;;;;;18.53;28.51;97571.98;110220;1242;59689;-73
2023/05/11 12:48:59;;;;;;;;;;;;;;;18.55;29.07;97571.59;110226;1241;59686;-73
2023/05/11 12:52:01;;;;;;;;;;;;;;;18.58;29.04;97567.81;110169;1242;71350;-73
2023/05/11 12:54:39;;;;;;;;;;;;;;;18.76;29.31;97568.08;109846;1242;70242;-72
2023/05/11 12:57:21;;;;;;;;;;;;;;;19.09;29.09;97563.92;110156;1241;69982;-74
2023/05/11 13:00:07;;;;;;;;;;;;;;;19.48;28.55;97558.01;110197;1242;59764;-72
2023/05/11 13:02:56;;;;;;;;;;;;;;;19.47;28.81;97556.71;110255;1241;59693;-73